Time;durP1;ratioP1;P1;durP2;ratioP2;P2;SDS_P1;SDS_P2;PMS_P1;PMS_P2;Temp;Humidity;BMP_temperature;BMP_pressure;BME280_temperature;BME280_humidity;BME280_pressure;Samples;Min_cycle;Max_cycle;Signal;HPM_P1;HPM_P2
2023/04/29 00:01:34;;;;;;;25.80;18.52;;;11.30;99.90;;;;;;5041200;28;20036;-43
2023/04/29 00:04:00;;;;;;;26.35;19.30;;;11.30;99.90;;;;;;5042999;28;20495;-44
2023/04/29 00:06:27;;;;;;;32.78;22.38;;;11.40;99.90;;;;;;5041424;28;20115;-42
2023/04/29 00:08:52;;;;;;;30.23;20.08;;;11.40;99.90;;;;;;5042975;28;20025;-43
2023/04/29 00:11:26;;;;;;;25.55;17.90;;;11.40;99.90;;;;;;5043084;28;20369;-43
2023/04/29 00:13:52;;;;;;;26.00;19.55;;;11.30;99.90;;;;;;5043379;28;20050;-43
2023/04/29 00:16:17;;;;;;;23.92;18.23;;;11.30;99.90;;;;;;5042778;28;20029;-42
2023/04/29 00:18:43;;;;;;;31.05;22.65;;;11.30;99.90;;;;;;5043201;28;20027;-44
2023/04/29 00:21:08;;;;;;;31.48;22.65;;;11.30;99.90;;;;;;5042673;28;20020;-43
2023/04/29 00:23:34;;;;;;;34.88;23.00;;;11.20;99.90;;;;;;5042608;28;20044;-44
2023/04/29 00:26:00;;;;;;;27.27;19.48;;;11.20;99.90;;;;;;5042373;28;20029;-43
2023/04/29 00:28:25;;;;;;;33.50;22.70;;;11.10;99.90;;;;;;5042438;28;20025;-43
2023/04/29 00:30:51;;;;;;;32.30;24.27;;;11.10;99.90;;;;;;5042227;28;20739;-43
2023/04/29 00:33:20;;;;;;;24.58;18.58;;;11.10;99.90;;;;;;5042604;28;20909;-43
2023/04/29 00:35:52;;;;;;;28.58;18.65;;;11.00;99.90;;;;;;5042438;28;20388;-43
2023/04/29 00:38:17;;;;;;;25.43;18.10;;;11.00;99.90;;;;;;5042610;28;20104;-43
2023/04/29 00:40:44;;;;;;;28.42;21.75;;;11.00;99.90;;;;;;5041743;28;20883;-44
2023/04/29 00:43:09;;;;;;;27.27;19.70;;;11.00;99.90;;;;;;5041856;28;20112;-43
2023/04/29 00:45:35;;;;;;;26.33;18.60;;;11.00;99.90;;;;;;5042234;28;20043;-44
2023/04/29 00:48:00;;;;;;;24.70;17.60;;;11.00;99.90;;;;;;5041511;28;20055;-43
2023/04/29 00:50:26;;;;;;;22.95;16.50;;;11.00;99.90;;;;;;5042210;28;20429;-43
2023/04/29 00:52:52;;;;;;;23.67;17.60;;;11.10;99.90;;;;;;5041329;28;20025;-43
2023/04/29 00:55:18;;;;;;;24.48;17.33;;;11.10;99.90;;;;;;5042315;28;20040;-43
2023/04/29 00:57:47;;;;;;;24.40;17.02;;;11.10;99.90;;;;;;5041354;28;20048;-43
2023/04/29 01:00:15;;;;;;;29.55;19.15;;;11.10;99.90;;;;;;5042433;28;20083;-43
2023/04/29 01:02:40;;;;;;;22.08;16.15;;;11.20;99.90;;;;;;5042247;28;20055;-43
2023/04/29 01:05:06;;;;;;;25.33;17.17;;;11.20;99.90;;;;;;5040826;28;20033;-43
2023/04/29 01:08:20;;;;;;;25.55;17.88;;;11.10;99.90;;;;;;5040526;28;20025;-44
2023/04/29 01:11:08;;;;;;;23.23;17.60;;;11.10;99.90;;;;;;5031773;28;20049;-43
2023/04/29 01:13:42;;;;;;;22.25;15.07;;;11.10;99.90;;;;;;5040590;28;20111;-43
2023/04/29 01:16:16;;;;;;;23.25;16.50;;;11.10;99.90;;;;;;5021489;28;20017;-43
2023/04/29 01:18:48;;;;;;;21.48;15.63;;;11.10;99.90;;;;;;5037367;28;20753;-43
2023/04/29 01:21:14;;;;;;;20.33;14.77;;;11.10;99.90;;;;;;5022198;28;20397;-43
2023/04/29 01:23:44;;;;;;;21.25;14.60;;;11.10;99.90;;;;;;5035763;28;20021;-44
2023/04/29 01:26:10;;;;;;;23.98;15.63;;;11.20;99.90;;;;;;5041098;28;20033;-44
2023/04/29 01:28:49;;;;;;;19.30;14.45;;;11.10;99.90;;;;;;5041321;28;20024;-43
2023/04/29 01:31:31;;;;;;;21.52;14.85;;;11.10;99.90;;;;;;5041682;28;20049;-42
2023/04/29 01:34:11;;;;;;;23.10;15.45;;;11.20;99.90;;;;;;5039618;28;20020;-43
2023/04/29 01:37:15;;;;;;;25.23;17.33;;;11.10;99.90;;;;;;5040776;28;20434;-44
2023/04/29 01:39:49;;;;;;;24.90;15.88;;;11.10;99.90;;;;;;4978977;28;20701;-42
2023/04/29 01:42:46;;;;;;;16.60;12.18;;;11.00;99.90;;;;;;4979650;28;20038;-43
2023/04/29 01:45:16;;;;;;;25.42;16.67;;;11.10;99.90;;;;;;5011772;28;20036;-43
2023/04/29 01:47:43;;;;;;;24.75;17.33;;;11.00;99.90;;;;;;5039954;28;20072;-42
2023/04/29 01:50:09;;;;;;;22.10;16.17;;;11.00;99.90;;;;;;5041137;28;20148;-43
2023/04/29 01:52:35;;;;;;;21.33;15.70;;;11.00;99.90;;;;;;5041513;28;20033;-42
2023/04/29 01:55:02;;;;;;;23.50;16.15;;;11.10;99.90;;;;;;5040513;28;20033;-42
2023/04/29 01:57:28;;;;;;;22.55;15.73;;;11.00;99.90;;;;;;5041311;28;20025;-42
2023/04/29 01:59:54;;;;;;;23.95;16.77;;;11.00;99.90;;;;;;5040837;28;20031;-43
2023/04/29 02:02:22;;;;;;;23.10;16.95;;;11.00;99.90;;;;;;5040306;28;20025;-42
2023/04/29 02:04:50;;;;;;;26.38;17.85;;;11.00;99.90;;;;;;5040724;28;20028;-43
2023/04/29 02:07:16;;;;;;;24.20;16.77;;;10.90;99.90;;;;;;5040830;28;20051;-42
2023/04/29 02:09:41;;;;;;;24.20;17.70;;;10.90;99.90;;;;;;5039953;28;20488;-42
2023/04/29 02:12:07;;;;;;;23.95;16.55;;;10.80;99.90;;;;;;5041153;28;20029;-42
2023/04/29 02:14:33;;;;;;;21.95;15.35;;;10.80;99.90;;;;;;5039997;28;20037;-43
2023/04/29 02:17:01;;;;;;;25.60;16.70;;;10.90;99.90;;;;;;5039085;28;20419;-43
2023/04/29 02:19:27;;;;;;;25.42;17.83;;;10.80;99.90;;;;;;5039531;28;20031;-42
2023/04/29 02:21:55;;;;;;;23.13;15.73;;;10.80;99.90;;;;;;5039878;28;20028;-45
2023/04/29 02:24:21;;;;;;;24.88;15.57;;;10.80;99.90;;;;;;5040244;28;20106;-44
2023/04/29 02:26:46;;;;;;;26.73;18.08;;;10.90;99.90;;;;;;5041030;28;20021;-44
2023/04/29 02:29:12;;;;;;;27.15;16.48;;;10.80;99.90;;;;;;5039867;28;20021;-43
2023/04/29 02:31:37;;;;;;;23.95;17.45;;;10.80;99.90;;;;;;5043968;28;20032;-43
2023/04/29 02:34:03;;;;;;;22.48;16.17;;;10.80;99.90;;;;;;5044930;28;20568;-43
2023/04/29 02:36:30;;;;;;;21.65;16.15;;;10.80;99.90;;;;;;5043436;28;20148;-43
2023/04/29 02:38:59;;;;;;;21.17;15.32;;;10.80;99.90;;;;;;5045144;28;20100;-42
2023/04/29 02:41:25;;;;;;;20.98;14.95;;;10.80;99.90;;;;;;5044155;28;20485;-43
2023/04/29 02:43:50;;;;;;;20.13;13.75;;;10.70;99.90;;;;;;5044097;28;20028;-44
2023/04/29 02:46:17;;;;;;;21.00;14.98;;;10.70;99.90;;;;;;5044864;28;20345;-44
2023/04/29 02:48:45;;;;;;;23.30;16.48;;;10.70;99.90;;;;;;5044120;28;20045;-44
2023/04/29 02:51:11;;;;;;;21.67;14.68;;;10.80;99.90;;;;;;5043053;28;20503;-42
2023/04/29 02:53:36;;;;;;;21.42;13.50;;;10.80;99.90;;;;;;5044214;28;20075;-43
2023/04/29 02:56:02;;;;;;;17.40;12.73;;;10.80;99.90;;;;;;5044374;28;20522;-43
2023/04/29 02:58:28;;;;;;;22.73;15.23;;;10.80;99.90;;;;;;5044635;28;20075;-43
2023/04/29 03:00:53;;;;;;;21.92;14.90;;;10.80;99.90;;;;;;5044787;28;20060;-43
2023/04/29 03:03:19;;;;;;;16.95;12.05;;;10.80;99.90;;;;;;5044211;28;20025;-42
2023/04/29 03:05:44;;;;;;;18.65;13.00;;;10.80;99.90;;;;;;5043297;28;20091;-42
2023/04/29 03:08:10;;;;;;;23.13;14.35;;;10.80;99.90;;;;;;5044131;28;20031;-42
2023/04/29 03:10:36;;;;;;;20.50;13.32;;;10.80;99.90;;;;;;5044072;28;20021;-43
2023/04/29 03:13:01;;;;;;;22.50;13.90;;;10.80;99.90;;;;;;5043156;28;20148;-42
2023/04/29 03:15:27;;;;;;;18.67;13.48;;;10.80;99.90;;;;;;5043609;28;20477;-43
2023/04/29 03:17:55;;;;;;;22.73;14.48;;;10.80;99.90;;;;;;5043523;28;20382;-43
2023/04/29 03:20:21;;;;;;;20.08;14.85;;;10.80;99.90;;;;;;5044058;28;20017;-43
2023/04/29 03:22:46;;;;;;;21.42;15.02;;;10.90;99.90;;;;;;5043260;28;20033;-44
2023/04/29 03:25:12;;;;;;;22.25;15.45;;;10.80;99.90;;;;;;5043526;28;20448;-43
2023/04/29 03:27:38;;;;;;;20.58;14.27;;;10.80;99.90;;;;;;5041881;28;20021;-44
2023/04/29 03:30:05;;;;;;;19.60;14.27;;;10.80;99.90;;;;;;5042833;28;20396;-44
2023/04/29 03:32:31;;;;;;;26.00;16.00;;;10.90;99.90;;;;;;5042225;28;20033;-45
2023/04/29 03:34:57;;;;;;;25.05;16.02;;;10.90;99.90;;;;;;5043982;28;20025;-43
2023/04/29 03:37:25;;;;;;;22.10;14.65;;;10.80;99.90;;;;;;5043362;28;20025;-43
2023/04/29 03:39:50;;;;;;;23.77;16.50;;;10.80;99.90;;;;;;5043544;28;20021;-43
2023/04/29 03:42:16;;;;;;;25.10;16.13;;;10.80;99.90;;;;;;5043753;28;20031;-42
2023/04/29 03:44:42;;;;;;;20.02;14.30;;;10.80;99.90;;;;;;5043326;28;20454;-43
2023/04/29 03:47:07;;;;;;;23.70;16.13;;;10.80;99.90;;;;;;5042114;28;20092;-42
2023/04/29 03:49:33;;;;;;;22.30;14.88;;;10.80;99.90;;;;;;5042766;28;20032;-43
2023/04/29 03:51:59;;;;;;;22.40;15.02;;;10.90;99.90;;;;;;5042402;28;20041;-42
2023/04/29 03:54:27;;;;;;;20.98;14.15;;;10.90;99.90;;;;;;5042353;28;20017;-43
2023/04/29 03:56:53;;;;;;;17.13;12.10;;;10.80;99.90;;;;;;5042943;28;20057;-44
2023/04/29 03:59:18;;;;;;;21.70;15.23;;;10.90;99.90;;;;;;5042569;28;20215;-42
2023/04/29 04:01:44;;;;;;;22.08;14.80;;;10.90;99.90;;;;;;5042672;28;20109;-43
2023/04/29 04:04:09;;;;;;;21.65;14.93;;;10.80;99.90;;;;;;5042666;28;20060;-42
2023/04/29 04:06:35;;;;;;;21.10;16.10;;;10.80;99.90;;;;;;5042216;28;20558;-43
2023/04/29 04:09:00;;;;;;;20.85;15.55;;;10.80;99.90;;;;;;5043240;28;20032;-42
2023/04/29 04:11:26;;;;;;;18.38;13.18;;;10.80;99.90;;;;;;5043013;28;20120;-43
2023/04/29 04:13:54;;;;;;;20.20;14.07;;;10.80;99.90;;;;;;5042231;28;20025;-43
2023/04/29 04:16:20;;;;;;;19.98;13.93;;;10.80;99.90;;;;;;5042917;28;20039;-43
2023/04/29 04:18:48;;;;;;;17.52;12.68;;;10.90;99.90;;;;;;5042992;28;20018;-43
2023/04/29 04:21:14;;;;;;;19.50;14.48;;;10.90;99.90;;;;;;5043537;28;20052;-42
2023/04/29 04:23:40;;;;;;;18.38;14.27;;;10.90;99.90;;;;;;5041706;28;20533;-42
2023/04/29 04:26:06;;;;;;;22.60;14.07;;;10.90;99.90;;;;;;5042583;28;20028;-43
2023/04/29 04:28:34;;;;;;;20.15;13.45;;;10.80;99.90;;;;;;5042620;28;20037;-44
2023/04/29 04:31:00;;;;;;;18.80;13.57;;;10.80;99.90;;;;;;5042194;28;20037;-42
2023/04/29 04:33:26;;;;;;;16.38;13.13;;;10.80;99.90;;;;;;5041458;28;20525;-43
2023/04/29 04:35:52;;;;;;;18.88;13.68;;;10.80;99.90;;;;;;5039652;28;20163;-43
2023/04/29 04:38:18;;;;;;;17.98;12.98;;;10.80;99.90;;;;;;5041920;28;20033;-44
2023/04/29 04:40:44;;;;;;;17.27;13.05;;;10.80;99.90;;;;;;5041210;28;20115;-43
2023/04/29 04:43:09;;;;;;;16.83;12.73;;;10.80;99.90;;;;;;5041445;28;20029;-42
2023/04/29 04:45:35;;;;;;;16.15;12.05;;;10.80;99.90;;;;;;5042375;28;20029;-44
2023/04/29 04:48:04;;;;;;;13.70;11.50;;;10.80;99.90;;;;;;5042475;28;20052;-43
2023/04/29 04:50:29;;;;;;;15.70;12.13;;;10.80;99.90;;;;;;5041822;28;20095;-43
2023/04/29 04:52:55;;;;;;;19.33;12.43;;;10.80;99.90;;;;;;5041235;28;20484;-42
2023/04/29 04:55:22;;;;;;;21.60;13.18;;;10.80;99.90;;;;;;5041852;28;20047;-43
2023/04/29 04:57:47;;;;;;;17.10;12.18;;;10.80;99.90;;;;;;5041896;28;20031;-43
2023/04/29 05:00:13;;;;;;;16.98;12.38;;;10.80;99.90;;;;;;5042259;28;20703;-42
2023/04/29 05:02:39;;;;;;;15.25;12.13;;;10.80;99.90;;;;;;5042253;28;20021;-43
2023/04/29 05:05:05;;;;;;;16.08;12.18;;;10.80;99.90;;;;;;5041903;28;20037;-43
2023/04/29 05:07:34;;;;;;;15.85;11.32;;;10.90;99.90;;;;;;5041881;28;20318;-43
2023/04/29 05:10:01;;;;;;;18.75;12.90;;;10.90;99.90;;;;;;5042037;28;20036;-44
2023/04/29 05:12:29;;;;;;;20.30;12.75;;;10.90;99.90;;;;;;5041219;28;20025;-43
2023/04/29 05:14:55;;;;;;;14.30;11.25;;;10.90;99.90;;;;;;5041544;28;20686;-44
2023/04/29 05:17:21;;;;;;;17.63;12.30;;;10.90;99.90;;;;;;5042611;28;20032;-44
2023/04/29 05:19:46;;;;;;;19.52;12.00;;;11.00;99.90;;;;;;5041245;28;20024;-43
2023/04/29 05:22:12;;;;;;;16.35;12.68;;;11.00;99.90;;;;;;5041763;28;20028;-43
2023/04/29 05:24:37;;;;;;;14.48;11.50;;;11.00;99.90;;;;;;5041889;28;20785;-43
2023/04/29 05:27:06;;;;;;;14.43;11.07;;;11.00;99.90;;;;;;5040847;28;20033;-43
2023/04/29 05:29:44;;;;;;;17.13;11.73;;;11.00;99.90;;;;;;5021998;28;20029;-42
2023/04/29 05:32:10;;;;;;;14.60;11.27;;;11.10;99.90;;;;;;5036531;28;20047;-42
2023/04/29 05:34:38;;;;;;;16.55;12.48;;;11.10;99.90;;;;;;5041568;28;20033;-43
2023/04/29 05:37:04;;;;;;;20.38;13.02;;;11.10;99.90;;;;;;5041696;28;20326;-43
2023/04/29 05:39:29;;;;;;;16.77;13.68;;;11.10;99.90;;;;;;5040467;28;20496;-43
2023/04/29 05:41:55;;;;;;;16.95;12.45;;;11.20;99.90;;;;;;5040497;28;20013;-43
2023/04/29 05:44:21;;;;;;;14.75;10.73;;;11.20;99.90;;;;;;5040686;28;20036;-44
2023/04/29 05:46:47;;;;;;;18.92;12.95;;;11.30;99.90;;;;;;5039271;28;20098;-44
2023/04/29 05:49:13;;;;;;;14.57;11.02;;;11.30;99.90;;;;;;5041280;28;20029;-43
2023/04/29 05:51:38;;;;;;;16.42;12.75;;;11.40;99.90;;;;;;5040039;28;20036;-43
2023/04/29 05:54:04;;;;;;;17.73;14.02;;;11.40;99.90;;;;;;5040520;28;20025;-43
2023/04/29 05:56:30;;;;;;;18.55;14.15;;;11.40;99.90;;;;;;5040798;28;20029;-42
2023/04/29 05:58:55;;;;;;;18.23;12.80;;;11.40;99.90;;;;;;5041269;28;20053;-43
2023/04/29 06:01:21;;;;;;;13.68;10.77;;;11.50;99.90;;;;;;5041447;28;20126;-44
2023/04/29 06:03:46;;;;;;;17.00;12.38;;;11.50;99.90;;;;;;5039763;28;20036;-43
2023/04/29 06:06:12;;;;;;;13.20;10.95;;;11.50;99.90;;;;;;5041567;28;20473;-42
2023/04/29 06:08:41;;;;;;;15.05;11.75;;;11.50;99.90;;;;;;5040386;28;20025;-44
2023/04/29 06:11:06;;;;;;;16.35;12.00;;;11.50;99.90;;;;;;5041754;28;20825;-44
2023/04/29 06:13:33;;;;;;;18.77;13.68;;;11.60;99.90;;;;;;5040769;28;20032;-43
2023/04/29 06:15:59;;;;;;;16.95;12.75;;;11.60;99.90;;;;;;5040696;28;20060;-43
2023/04/29 06:18:24;;;;;;;17.85;12.70;;;11.60;99.90;;;;;;5041227;28;20377;-43
2023/04/29 06:20:53;;;;;;;19.95;13.98;;;11.60;99.90;;;;;;5041238;28;20021;-45
2023/04/29 06:23:24;;;;;;;15.38;13.25;;;11.70;99.90;;;;;;5039888;28;20035;-44
2023/04/29 06:25:52;;;;;;;15.52;11.70;;;11.60;99.90;;;;;;5040327;28;20082;-43
2023/04/29 06:28:18;;;;;;;17.35;12.80;;;11.70;99.90;;;;;;5040015;28;20112;-43
2023/04/29 06:30:50;;;;;;;15.10;12.10;;;11.70;99.90;;;;;;5040263;28;20043;-43
2023/04/29 06:33:16;;;;;;;14.73;11.60;;;11.70;99.90;;;;;;5040341;28;20021;-44
2023/04/29 06:35:41;;;;;;;17.95;11.98;;;11.80;99.90;;;;;;5040381;28;20491;-43
2023/04/29 06:38:07;;;;;;;15.68;12.45;;;11.90;99.90;;;;;;5040671;28;20456;-42
2023/04/29 06:40:33;;;;;;;15.27;11.13;;;11.90;99.90;;;;;;5040577;28;20124;-44
2023/04/29 06:42:59;;;;;;;14.98;11.52;;;11.90;99.90;;;;;;5039761;28;20036;-43
2023/04/29 06:45:24;;;;;;;15.90;11.57;;;12.00;99.90;;;;;;5040992;28;20601;-43
2023/04/29 06:47:50;;;;;;;18.45;12.70;;;12.00;99.90;;;;;;5040382;28;20068;-43
2023/04/29 06:50:15;;;;;;;15.82;12.18;;;12.00;99.90;;;;;;5038853;28;20043;-44
2023/04/29 06:52:41;;;;;;;16.88;12.38;;;12.10;99.90;;;;;;5039370;28;20132;-44
2023/04/29 06:55:07;;;;;;;21.10;12.30;;;12.10;99.90;;;;;;5039401;28;20120;-43
2023/04/29 06:57:33;;;;;;;14.85;11.50;;;12.10;99.90;;;;;;5039090;28;20067;-43
2023/04/29 06:59:58;;;;;;;17.80;12.60;;;12.20;99.90;;;;;;5040009;28;20021;-43
2023/04/29 07:02:24;;;;;;;20.90;13.63;;;12.20;99.90;;;;;;5040768;28;20056;-44
2023/04/29 07:04:49;;;;;;;18.05;12.77;;;12.30;99.90;;;;;;5038914;28;20464;-44
2023/04/29 07:07:15;;;;;;;14.48;12.20;;;12.30;99.90;;;;;;5040247;28;20629;-43
2023/04/29 07:09:41;;;;;;;13.82;10.55;;;12.30;99.90;;;;;;5039678;28;20840;-43
2023/04/29 07:12:06;;;;;;;13.57;11.05;;;12.40;99.90;;;;;;5039706;28;20045;-42
2023/04/29 07:14:32;;;;;;;16.20;11.77;;;12.40;99.90;;;;;;5039989;28;20029;-43
2023/04/29 07:16:57;;;;;;;15.13;10.95;;;12.40;99.90;;;;;;5043393;28;20033;-43
2023/04/29 07:19:26;;;;;;;12.27;9.95;;;12.50;99.90;;;;;;5043475;28;20440;-43
2023/04/29 07:21:55;;;;;;;14.20;10.48;;;12.60;99.90;;;;;;5043952;28;20024;-43
2023/04/29 07:24:26;;;;;;;15.57;11.43;;;12.60;99.90;;;;;;5044076;28;20029;-43
2023/04/29 07:26:52;;;;;;;16.67;10.70;;;12.60;99.90;;;;;;5043100;28;20641;-43
2023/04/29 07:29:30;;;;;;;21.45;13.18;;;12.70;99.90;;;;;;5044392;28;20028;-42
2023/04/29 07:31:56;;;;;;;16.48;11.90;;;12.70;99.90;;;;;;5042689;28;20044;-44
2023/04/29 07:34:21;;;;;;;15.30;12.32;;;12.70;99.90;;;;;;5043063;28;20025;-43
2023/04/29 07:36:47;;;;;;;16.13;11.90;;;12.70;99.90;;;;;;5043523;28;20051;-44
2023/04/29 07:39:14;;;;;;;17.63;11.73;;;12.70;99.90;;;;;;5042837;28;20129;-44
2023/04/29 07:41:39;;;;;;;18.10;11.55;;;12.70;99.90;;;;;;5042694;28;20065;-44
2023/04/29 07:44:05;;;;;;;19.38;11.63;;;12.80;99.90;;;;;;5043847;28;20033;-42
2023/04/29 07:46:30;;;;;;;16.27;12.10;;;12.80;99.90;;;;;;5042850;28;20021;-43
2023/04/29 07:48:57;;;;;;;14.45;11.48;;;12.90;99.90;;;;;;5042977;28;20147;-42
2023/04/29 07:51:23;;;;;;;14.75;11.18;;;12.90;99.90;;;;;;5043989;28;20040;-42
2023/04/29 07:53:48;;;;;;;14.75;10.38;;;13.00;99.90;;;;;;5042834;28;20368;-43
2023/04/29 07:56:15;;;;;;;14.75;11.05;;;13.20;99.90;;;;;;5043637;28;20025;-43
2023/04/29 07:58:40;;;;;;;13.07;9.90;;;13.30;99.90;;;;;;5042935;28;20738;-42
2023/04/29 08:01:10;;;;;;;13.13;9.85;;;13.30;99.90;;;;;;5041864;28;20009;-43
2023/04/29 08:03:36;;;;;;;12.50;9.50;;;13.50;99.90;;;;;;5041919;28;20507;-43
2023/04/29 08:06:03;;;;;;;16.83;10.85;;;13.50;99.90;;;;;;5042452;28;20197;-43
2023/04/29 08:08:29;;;;;;;12.90;10.23;;;13.50;99.90;;;;;;5041613;28;20052;-43
2023/04/29 08:10:58;;;;;;;12.63;9.50;;;13.60;99.90;;;;;;5042685;28;20140;-43
2023/04/29 08:13:24;;;;;;;12.40;9.13;;;13.70;99.90;;;;;;5042494;28;20028;-43
2023/04/29 08:15:50;;;;;;;12.30;9.50;;;13.80;99.90;;;;;;5041588;28;20412;-43
2023/04/29 08:18:16;;;;;;;11.57;9.32;;;13.90;99.90;;;;;;5042300;28;20025;-43
2023/04/29 08:20:41;;;;;;;16.00;10.23;;;13.90;99.90;;;;;;5042905;28;20021;-43
2023/04/29 08:23:07;;;;;;;14.73;9.50;;;13.90;99.90;;;;;;5042334;28;20618;-42
2023/04/29 08:25:32;;;;;;;13.75;9.10;;;13.90;99.90;;;;;;5042826;28;20028;-43
2023/04/29 08:27:58;;;;;;;11.20;9.13;;;13.90;99.90;;;;;;5040793;28;20821;-44
2023/04/29 08:30:23;;;;;;;13.43;8.95;;;14.00;99.90;;;;;;5043097;28;20465;-43
2023/04/29 08:32:49;;;;;;;14.05;9.23;;;14.10;99.90;;;;;;5042392;28;20449;-44
2023/04/29 08:35:15;;;;;;;17.67;9.35;;;14.10;99.90;;;;;;5042519;28;20044;-43
2023/04/29 08:37:41;;;;;;;15.05;11.27;;;14.20;99.90;;;;;;5042417;28;20021;-43
2023/04/29 08:40:10;;;;;;;13.65;9.82;;;14.20;99.90;;;;;;5042576;28;20036;-43
2023/04/29 08:42:39;;;;;;;16.83;9.43;;;14.10;99.90;;;;;;5041107;28;20499;-43
2023/04/29 08:45:05;;;;;;;11.95;9.02;;;14.10;99.90;;;;;;5042083;28;20540;-44
2023/04/29 08:47:32;;;;;;;13.20;9.07;;;14.10;99.90;;;;;;5041870;28;20604;-43
2023/04/29 08:50:03;;;;;;;11.25;8.27;;;14.10;99.90;;;;;;5041666;28;20033;-44
2023/04/29 08:52:31;;;;;;;10.75;6.78;;;14.10;99.90;;;;;;5041877;28;20112;-42
2023/04/29 08:54:57;;;;;;;11.50;8.23;;;14.20;99.90;;;;;;5041572;28;20541;-43
2023/04/29 08:57:25;;;;;;;12.38;8.60;;;14.30;99.90;;;;;;5041738;28;20040;-44
2023/04/29 08:59:51;;;;;;;9.13;7.20;;;14.30;99.90;;;;;;5041826;28;20751;-44
2023/04/29 09:02:20;;;;;;;10.00;7.38;;;14.30;99.90;;;;;;5042524;28;20550;-43
2023/04/29 09:05:05;;;;;;;9.23;6.80;;;14.30;99.90;;;;;;5041299;28;20075;-44
2023/04/29 09:07:31;;;;;;;7.78;6.47;;;14.30;99.90;;;;;;5041011;28;20033;-44
2023/04/29 09:09:58;;;;;;;8.40;6.78;;;14.30;99.90;;;;;;5040275;28;20380;-43
2023/04/29 09:12:24;;;;;;;8.65;6.45;;;14.40;99.90;;;;;;5041112;28;20037;-43
2023/04/29 09:14:49;;;;;;;10.40;6.50;;;14.40;99.90;;;;;;5041201;28;20766;-43
2023/04/29 09:17:15;;;;;;;8.27;6.65;;;14.40;99.90;;;;;;5041480;28;20032;-44
2023/04/29 09:19:43;;;;;;;9.93;6.68;;;14.50;99.90;;;;;;5041976;28;20427;-43
2023/04/29 09:22:09;;;;;;;7.90;5.88;;;14.50;99.90;;;;;;5042248;28;20028;-46
2023/04/29 09:24:34;;;;;;;8.07;6.43;;;14.60;99.90;;;;;;5041546;28;20189;-43
2023/04/29 09:27:02;;;;;;;8.40;6.03;;;14.70;99.90;;;;;;5041492;28;20720;-44
2023/04/29 09:29:28;;;;;;;9.23;7.20;;;14.80;99.90;;;;;;5041983;28;20021;-44
2023/04/29 09:31:54;;;;;;;9.43;7.03;;;14.80;99.90;;;;;;5040756;28;20042;-43
2023/04/29 09:34:50;;;;;;;10.05;6.88;;;14.80;99.90;;;;;;5041249;28;20055;-43
2023/04/29 09:37:26;;;;;;;9.73;6.22;;;14.80;99.90;;;;;;5004038;28;20041;-44
2023/04/29 09:39:53;;;;;;;7.60;5.65;;;14.80;99.90;;;;;;5040597;28;20075;-44
2023/04/29 09:42:21;;;;;;;8.88;5.57;;;14.80;99.90;;;;;;5041829;28;20025;-43
2023/04/29 09:44:47;;;;;;;7.82;5.55;;;14.80;99.90;;;;;;5040797;28;20013;-43
2023/04/29 09:47:13;;;;;;;6.80;5.18;;;14.90;99.90;;;;;;5040926;28;20056;-43
2023/04/29 09:49:41;;;;;;;6.45;5.07;;;14.90;99.90;;;;;;5040417;28;20044;-43
2023/04/29 09:52:09;;;;;;;8.30;5.45;;;15.00;99.90;;;;;;5041154;28;20033;-42
2023/04/29 09:54:37;;;;;;;7.43;5.60;;;15.10;99.90;;;;;;5041304;28;20036;-42
2023/04/29 09:57:10;;;;;;;9.27;5.55;;;15.20;99.90;;;;;;5040710;28;20039;-44
2023/04/29 09:59:40;;;;;;;4.82;4.32;;;15.20;99.90;;;;;;5040883;28;20027;-43
2023/04/29 10:02:19;;;;;;;6.38;4.75;;;15.30;99.90;;;;;;5040703;28;20064;-43
2023/04/29 10:04:56;;;;;;;7.60;5.47;;;15.40;99.90;;;;;;5040950;28;20021;-43
2023/04/29 10:07:22;;;;;;;5.88;4.68;;;15.40;99.90;;;;;;5040372;28;20027;-43
2023/04/29 10:09:47;;;;;;;8.88;5.10;;;15.50;99.90;;;;;;5041053;28;20635;-42
2023/04/29 10:12:19;;;;;;;7.45;5.18;;;15.50;99.90;;;;;;5041219;28;20780;-43
2023/04/29 10:15:00;;;;;;;7.57;4.85;;;15.60;99.90;;;;;;5039527;28;20029;-43
2023/04/29 10:17:42;;;;;;;6.28;4.43;;;15.70;99.90;;;;;;5036777;28;20033;-43
2023/04/29 10:20:08;;;;;;;6.55;4.53;;;15.70;99.90;;;;;;5040477;28;20075;-44
2023/04/29 10:22:48;;;;;;;4.75;4.15;;;15.80;99.90;;;;;;5035888;28;20021;-43
2023/04/29 10:25:21;;;;;;;7.55;4.75;;;15.80;99.90;;;;;;5040296;28;20086;-44
2023/04/29 10:27:52;;;;;;;6.53;3.80;;;15.90;99.90;;;;;;5036842;28;20020;-43
2023/04/29 10:30:19;;;;;;;5.15;3.90;;;15.90;99.90;;;;;;5040337;28;20473;-43
2023/04/29 10:32:46;;;;;;;5.25;3.80;;;15.80;99.90;;;;;;5039578;28;20025;-43
2023/04/29 10:35:14;;;;;;;5.53;4.38;;;15.70;99.90;;;;;;5041095;28;20032;-43
2023/04/29 10:37:41;;;;;;;7.60;4.55;;;15.60;99.90;;;;;;5040572;28;20032;-42
2023/04/29 10:40:10;;;;;;;6.75;4.30;;;15.60;99.90;;;;;;5040936;28;20578;-43
2023/04/29 10:42:44;;;;;;;7.95;4.57;;;15.50;99.90;;;;;;5039649;28;20151;-43
2023/04/29 10:45:27;;;;;;;4.35;3.78;;;15.50;99.90;;;;;;5020833;28;20029;-43
2023/04/29 10:48:05;;;;;;;3.80;3.40;;;15.50;99.90;;;;;;5037541;28;20044;-43
2023/04/29 10:50:54;;;;;;;4.97;3.58;;;15.60;99.90;;;;;;5041255;28;20123;-42
2023/04/29 10:53:19;;;;;;;5.78;3.85;;;15.70;99.90;;;;;;5045549;28;20025;-42
2023/04/29 10:55:56;;;;;;;4.72;3.60;;;15.80;99.90;;;;;;5044651;28;20028;-43
2023/04/29 10:58:38;;;;;;;5.35;3.70;;;15.90;99.90;;;;;;5044150;28;20441;-43
2023/04/29 11:01:06;;;;;;;4.93;3.88;;;16.00;99.90;;;;;;5044231;28;20025;-42
2023/04/29 11:03:56;;;;;;;5.05;3.92;;;16.00;99.90;;;;;;5043439;28;20033;-42
2023/04/29 11:06:24;;;;;;;4.80;4.13;;;16.00;99.90;;;;;;5044978;28;20102;-43
2023/04/29 11:09:20;;;;;;;4.93;3.90;;;16.00;99.90;;;;;;5044119;28;20100;-43
2023/04/29 11:11:56;;;;;;;5.45;3.80;;;16.10;99.90;;;;;;5043192;28;20082;-43
2023/04/29 11:14:42;;;;;;;4.10;3.30;;;16.20;99.90;;;;;;5041508;28;20037;-43
2023/04/29 11:17:15;;;;;;;5.13;3.17;;;16.30;99.90;;;;;;5043422;28;20563;-42
2023/04/29 11:19:47;;;;;;;3.40;3.08;;;16.40;99.90;;;;;;5044269;28;20240;-43
2023/04/29 11:22:26;;;;;;;5.13;3.03;;;16.50;99.90;;;;;;5044400;28;20029;-43
2023/04/29 11:25:05;;;;;;;3.42;3.03;;;16.50;99.90;;;;;;5042849;28;20029;-43
2023/04/29 11:27:41;;;;;;;5.50;3.15;;;16.50;99.90;;;;;;5043050;28;20036;-44
2023/04/29 11:30:13;;;;;;;4.55;3.22;;;16.50;99.90;;;;;;5042927;28;20028;-43
2023/04/29 11:32:41;;;;;;;3.38;2.90;;;16.50;99.90;;;;;;5043042;28;20040;-42
2023/04/29 11:35:11;;;;;;;4.53;3.67;;;16.60;99.90;;;;;;5043721;28;20030;-41
2023/04/29 11:37:37;;;;;;;5.63;3.75;;;16.70;99.90;;;;;;5044163;28;20021;-43
2023/04/29 11:40:05;;;;;;;4.72;3.80;;;16.80;99.90;;;;;;5043316;28;20041;-43
2023/04/29 11:42:34;;;;;;;4.22;3.40;;;16.80;99.90;;;;;;5043832;28;20075;-44
2023/04/29 11:44:59;;;;;;;3.88;3.25;;;16.70;99.90;;;;;;5042337;28;20074;-43
2023/04/29 11:47:29;;;;;;;4.35;3.25;;;16.70;99.90;;;;;;5042888;28;20056;-43
2023/04/29 11:50:09;;;;;;;3.22;2.53;;;16.70;99.90;;;;;;5043116;28;20584;-44
2023/04/29 11:52:36;;;;;;;4.97;3.22;;;16.80;99.80;;;;;;5041906;28;20060;-44
2023/04/29 11:55:02;;;;;;;3.50;3.05;;;16.80;99.80;;;;;;5043419;28;20039;-43
2023/04/29 11:57:28;;;;;;;6.47;3.10;;;16.90;99.70;;;;;;5037541;28;20069;-44
2023/04/29 11:59:54;;;;;;;5.95;3.28;;;17.00;99.50;;;;;;5042496;28;20536;-44
2023/04/29 12:02:31;;;;;;;3.15;2.85;;;17.00;99.10;;;;;;5042696;28;20480;-35
2023/04/29 12:04:58;;;;;;;3.97;3.35;;;17.00;99.30;;;;;;5043137;28;20086;-34
2023/04/29 12:07:23;;;;;;;4.18;2.97;;;17.00;98.70;;;;;;5041993;28;20025;-33
2023/04/29 12:09:59;;;;;;;5.95;3.03;;;17.00;98.90;;;;;;5042954;28;20032;-34
2023/04/29 12:12:26;;;;;;;4.43;3.20;;;16.90;98.80;;;;;;5042952;28;20055;-34
2023/04/29 12:14:52;;;;;;;3.97;3.50;;;16.90;98.80;;;;;;5042189;28;20061;-34
2023/04/29 12:17:18;;;;;;;5.22;3.30;;;16.90;98.60;;;;;;5042436;28;20091;-34
2023/04/29 12:19:44;;;;;;;5.05;3.38;;;17.00;98.90;;;;;;5042161;28;20014;-35
2023/04/29 12:22:13;;;;;;;4.43;3.00;;;17.10;98.80;;;;;;5041979;28;20036;-33
2023/04/29 12:24:41;;;;;;;4.03;3.00;;;17.20;98.80;;;;;;5042545;28;20076;-33
2023/04/29 12:27:08;;;;;;;4.38;2.90;;;17.30;98.50;;;;;;5041184;28;20392;-33
2023/04/29 12:29:39;;;;;;;3.80;2.85;;;17.40;98.30;;;;;;5037272;28;20037;-33
2023/04/29 12:32:05;;;;;;;4.30;2.25;;;17.50;98.10;;;;;;5042154;28;20032;-34
2023/04/29 12:34:31;;;;;;;4.50;2.72;;;17.50;97.90;;;;;;5040594;28;20078;-33
2023/04/29 12:37:00;;;;;;;4.60;2.85;;;17.60;97.80;;;;;;5041815;28;20122;-33
2023/04/29 12:39:27;;;;;;;3.10;2.80;;;17.60;97.60;;;;;;5042195;28;20598;-33